Time;durP1;ratioP1;P1;durP2;ratioP2;P2;SDS_P1;SDS_P2;PMS_P1;PMS_P2;Temp;Humidity;BMP_temperature;BMP_pressure;BME280_temperature;BME280_humidity;BME280_pressure;Samples;Min_cycle;Max_cycle;Signal;HPM_P1;HPM_P2
2022/10/25 00:01:41;;;;;;;;;;;;;;;21.27;50.35;99156.06;4454176;32;33052;-92
2022/10/25 00:04:08;;;;;;;;;;;;;;;20.95;51.25;99164.94;4452638;32;34255;-93
2022/10/25 00:06:35;;;;;;;;;;;;;;;20.74;51.83;99166.44;4476262;32;34795;-92
2022/10/25 00:09:03;;;;;;;;;;;;;;;20.90;51.51;99174.75;4457105;32;34143;-92
2022/10/25 00:11:30;;;;;;;;;;;;;;;19.97;54.15;99182.53;4451167;32;32129;-94
2022/10/25 00:13:58;;;;;;;;;;;;;;;20.09;53.88;99187.47;4449490;32;34244;-94
2022/10/25 00:16:27;;;;;;;;;;;;;;;20.53;52.77;99198.63;4454563;32;34144;-94
2022/10/25 00:18:54;;;;;;;;;;;;;;;20.27;53.43;99200.16;4453990;32;33993;-93
2022/10/25 00:21:21;;;;;;;;;;;;;;;20.33;53.23;99200.00;4440720;32;32748;-93
2022/10/25 00:23:49;;;;;;;;;;;;;;;20.39;53.29;99201.63;4451055;32;34094;-92
2022/10/25 00:26:16;;;;;;;;;;;;;;;20.67;52.47;99204.38;4441406;32;34166;-92
2022/10/25 00:28:43;;;;;;;;;;;;;;;20.65;52.43;99193.03;4456909;32;33044;-91
2022/10/25 00:31:12;;;;;;;;;;;;;;;20.87;51.83;99199.44;4433634;32;32919;-93
2022/10/25 00:33:41;;;;;;;;;;;;;;;20.83;52.08;99196.91;4418011;32;33397;-93
2022/10/25 00:36:11;;;;;;;;;;;;;;;20.77;52.35;99195.31;4432083;32;34026;-92
2022/10/25 00:38:38;;;;;;;;;;;;;;;20.93;52.02;99200.16;4483776;32;34076;-92
2022/10/25 00:41:05;;;;;;;;;;;;;;;21.09;51.71;99194.38;4478040;32;33457;-91
2022/10/25 00:43:35;;;;;;;;;;;;;;;21.22;51.40;99197.53;4444137;32;34539;-90
2022/10/25 00:46:03;;;;;;;;;;;;;;;21.34;51.01;99197.19;4456497;32;34242;-94
2022/10/25 00:48:31;;;;;;;;;;;;;;;21.83;49.78;99207.97;4469222;32;34077;-93
2022/10/25 00:50:58;;;;;;;;;;;;;;;21.60;50.18;99206.06;4451753;32;32278;-93
2022/10/25 00:53:27;;;;;;;;;;;;;;;21.66;50.05;99205.00;4451124;32;34676;-91
2022/10/25 00:55:56;;;;;;;;;;;;;;;21.32;51.15;99198.97;4437497;32;34338;-92
2022/10/25 00:58:24;;;;;;;;;;;;;;;21.49;50.66;99205.53;4453918;32;34010;-93
2022/10/25 01:00:51;;;;;;;;;;;;;;;21.58;50.38;99210.53;4455667;32;33406;-94
2022/10/25 01:03:19;;;;;;;;;;;;;;;20.70;52.83;99220.09;4457253;32;33814;-92
2022/10/25 01:05:47;;;;;;;;;;;;;;;19.93;54.87;99219.44;4454399;32;33935;-95
2022/10/25 01:08:14;;;;;;;;;;;;;;;20.09;54.84;99221.69;4454790;32;33757;-94
2022/10/25 01:10:42;;;;;;;;;;;;;;;20.40;54.05;99221.75;4453944;32;33263;-93
2022/10/25 01:13:09;;;;;;;;;;;;;;;19.88;55.37;99223.94;4430513;32;32981;-95
2022/10/25 01:15:41;;;;;;;;;;;;;;;19.75;56.00;99230.41;4436634;32;33341;-93
2022/10/25 01:18:11;;;;;;;;;;;;;;;19.71;55.98;99218.22;4443140;32;34588;-93
2022/10/25 01:20:45;;;;;;;;;;;;;;;20.07;54.90;99220.84;4443444;32;33040;-93
2022/10/25 01:23:25;;;;;;;;;;;;;;;19.30;57.29;99211.25;4466196;32;34088;-94
2022/10/25 01:26:04;;;;;;;;;;;;;;;19.50;56.84;99209.03;4469793;32;35085;-92
2022/10/25 01:28:43;;;;;;;;;;;;;;;19.58;56.58;99211.47;4453153;32;34096;-93
2022/10/25 01:31:16;;;;;;;;;;;;;;;19.97;55.54;99209.72;4441106;32;33451;-93
2022/10/25 01:33:47;;;;;;;;;;;;;;;19.55;56.96;99214.19;4453217;32;33064;-93
2022/10/25 01:36:50;;;;;;;;;;;;;;;19.53;57.34;99208.09;4440402;32;33815;-92
2022/10/25 01:39:29;;;;;;;;;;;;;;;20.22;55.33;99194.13;4419326;32;33510;-92
2022/10/25 01:42:05;;;;;;;;;;;;;;;19.25;58.21;99200.84;4448318;32;32645;-94
2022/10/25 01:44:36;;;;;;;;;;;;;;;19.77;56.43;99206.69;4430762;32;33385;-92
2022/10/25 01:47:11;;;;;;;;;;;;;;;19.75;57.06;99203.25;4452694;32;33546;-92
2022/10/25 01:49:38;;;;;;;;;;;;;;;19.67;57.43;99206.03;4453950;32;35087;-94
2022/10/25 01:52:05;;;;;;;;;;;;;;;19.22;58.92;99214.03;4440729;32;34549;-92
2022/10/25 01:54:33;;;;;;;;;;;;;;;19.48;58.29;99212.59;4440665;32;33657;-94
2022/10/25 01:57:20;;;;;;;;;;;;;;;19.57;58.29;99215.87;4417855;32;34049;-95
2022/10/25 01:59:48;;;;;;;;;;;;;;;20.28;56.04;99193.13;4422177;32;35088;-95
2022/10/25 02:02:23;;;;;;;;;;;;;;;19.74;57.64;99191.84;4425576;32;33821;-92
2022/10/25 02:05:01;;;;;;;;;;;;;;;19.88;57.47;99194.13;4442747;32;33011;-94
2022/10/25 02:07:36;;;;;;;;;;;;;;;20.09;56.79;99185.72;4441003;32;34080;-94
2022/10/25 02:10:06;;;;;;;;;;;;;;;20.07;56.99;99198.03;4441029;32;33922;-93
2022/10/25 02:12:52;;;;;;;;;;;;;;;20.31;55.99;99193.06;4440456;32;32471;-94
2022/10/25 02:15:24;;;;;;;;;;;;;;;21.04;53.93;99198.06;4464902;32;34052;-93
2022/10/25 02:17:53;;;;;;;;;;;;;;;20.55;55.19;99189.78;4428115;32;33782;-93
2022/10/25 02:20:21;;;;;;;;;;;;;;;20.21;56.10;99186.28;4440603;32;33471;-92
2022/10/25 02:22:48;;;;;;;;;;;;;;;20.25;55.96;99185.31;4439915;32;33440;-94
2022/10/25 02:25:16;;;;;;;;;;;;;;;19.92;56.89;99187.88;4421815;32;34180;-91
2022/10/25 02:27:43;;;;;;;;;;;;;;;18.91;60.19;99192.81;4434451;32;33767;-92
2022/10/25 02:30:11;;;;;;;;;;;;;;;19.59;58.21;99186.94;4453528;32;33330;-92
2022/10/25 02:32:38;;;;;;;;;;;;;;;18.35;62.45;99185.09;4422483;32;32593;-93
2022/10/25 02:35:09;;;;;;;;;;;;;;;19.45;58.95;99185.47;4453398;32;34200;-94
2022/10/25 02:37:36;;;;;;;;;;;;;;;19.68;58.22;99173.56;4442755;32;34337;-92
2022/10/25 02:40:04;;;;;;;;;;;;;;;19.85;57.75;99179.31;4440517;32;33146;-94
2022/10/25 02:42:31;;;;;;;;;;;;;;;19.85;57.88;99189.81;4430996;32;33147;-93
2022/10/25 02:44:58;;;;;;;;;;;;;;;20.02;57.25;99188.53;4424835;32;33563;-93
2022/10/25 02:47:26;;;;;;;;;;;;;;;20.29;56.38;99195.72;4448417;32;34427;-91
2022/10/25 02:49:53;;;;;;;;;;;;;;;19.72;57.84;99192.78;4455807;32;33944;-92
2022/10/25 02:52:20;;;;;;;;;;;;;;;19.91;57.62;99205.44;4437424;32;33536;-94
2022/10/25 02:54:47;;;;;;;;;;;;;;;18.19;63.27;99205.50;4444854;32;34478;-93
2022/10/25 02:57:15;;;;;;;;;;;;;;;18.48;62.77;99202.31;4450075;32;33817;-93
2022/10/25 02:59:42;;;;;;;;;;;;;;;18.43;63.17;99200.69;4443222;32;34086;-93
2022/10/25 03:02:09;;;;;;;;;;;;;;;18.05;64.82;99217.13;4442310;32;32700;-94
2022/10/25 03:04:37;;;;;;;;;;;;;;;19.05;61.80;99214.38;4453376;32;33300;-94
2022/10/25 03:07:04;;;;;;;;;;;;;;;19.61;59.75;99211.41;4442339;32;34300;-92
2022/10/25 03:09:31;;;;;;;;;;;;;;;19.14;61.10;99215.97;4427637;32;33726;-94
2022/10/25 03:11:58;;;;;;;;;;;;;;;19.31;60.28;99218.22;4438534;32;32985;-94
2022/10/25 03:14:25;;;;;;;;;;;;;;;19.34;60.19;99219.03;4452659;32;33982;-92
2022/10/25 03:16:53;;;;;;;;;;;;;;;19.14;60.92;99210.72;4432264;32;33510;-92
2022/10/25 03:19:20;;;;;;;;;;;;;;;20.16;57.52;99216.22;4412241;32;33141;-93
2022/10/25 03:21:47;;;;;;;;;;;;;;;19.65;58.66;99218.34;4424255;32;32778;-92
2022/10/25 03:24:15;;;;;;;;;;;;;;;19.83;57.89;99212.66;4451574;32;34900;-92
2022/10/25 03:26:42;;;;;;;;;;;;;;;20.04;57.32;99205.12;4439273;32;34297;-94
2022/10/25 03:29:09;;;;;;;;;;;;;;;19.87;57.29;99211.69;4443847;32;34054;-94
2022/10/25 03:31:37;;;;;;;;;;;;;;;20.22;56.67;99209.94;4440612;32;34220;-92
2022/10/25 03:34:04;;;;;;;;;;;;;;;19.84;57.69;99230.16;4439834;32;33853;-93
2022/10/25 03:36:31;;;;;;;;;;;;;;;20.64;55.17;99222.91;4440313;32;33614;-92
2022/10/25 03:38:59;;;;;;;;;;;;;;;19.93;57.11;99227.34;4459667;32;33700;-92
2022/10/25 03:41:26;;;;;;;;;;;;;;;19.87;57.46;99226.63;4434645;32;33341;-94
2022/10/25 03:43:53;;;;;;;;;;;;;;;19.33;59.07;99227.81;4428906;32;33126;-94
2022/10/25 03:46:20;;;;;;;;;;;;;;;18.76;61.09;99232.50;4443411;32;34103;-95
2022/10/25 03:48:47;;;;;;;;;;;;;;;19.29;59.34;99239.28;4454903;32;33689;-93
2022/10/25 03:51:15;;;;;;;;;;;;;;;18.96;60.29;99232.97;4430016;32;33288;-93
2022/10/25 03:53:42;;;;;;;;;;;;;;;18.49;61.81;99213.72;4438000;32;33736;-95
2022/10/25 03:56:10;;;;;;;;;;;;;;;19.35;59.06;99209.37;4420580;32;33018;-93
2022/10/25 03:58:37;;;;;;;;;;;;;;;18.17;62.84;99202.03;4414407;32;33667;-93
2022/10/25 04:01:07;;;;;;;;;;;;;;;18.58;61.72;99203.03;4458093;32;32957;-92
2022/10/25 04:03:34;;;;;;;;;;;;;;;18.26;62.59;99197.50;4452952;32;34613;-93
2022/10/25 04:06:01;;;;;;;;;;;;;;;19.10;60.05;99204.66;4424855;32;34878;-94
2022/10/25 04:08:29;;;;;;;;;;;;;;;19.74;57.77;99194.47;4436775;32;34050;-93
2022/10/25 04:10:56;;;;;;;;;;;;;;;18.92;59.98;99205.91;4451760;32;32893;-93
2022/10/25 04:13:23;;;;;;;;;;;;;;;19.17;59.22;99205.41;4435640;32;33215;-91
2022/10/25 04:15:51;;;;;;;;;;;;;;;19.82;57.17;99210.09;4448926;32;34779;-92
2022/10/25 04:18:18;;;;;;;;;;;;;;;19.45;58.19;99214.38;4444239;32;34393;-93
2022/10/25 04:20:45;;;;;;;;;;;;;;;19.19;59.34;99209.69;4421861;32;32280;-90
2022/10/25 04:23:12;;;;;;;;;;;;;;;19.02;59.93;99205.72;4461059;32;34923;-94
2022/10/25 04:25:40;;;;;;;;;;;;;;;19.48;58.44;99209.97;4453965;32;33746;-93
2022/10/25 04:28:07;;;;;;;;;;;;;;;19.13;59.46;99214.22;4427670;32;34585;-92
2022/10/25 04:30:34;;;;;;;;;;;;;;;18.17;62.85;99217.78;4452932;32;32589;-93
2022/10/25 04:33:05;;;;;;;;;;;;;;;18.12;63.07;99213.50;4435646;32;33335;-92
2022/10/25 04:35:32;;;;;;;;;;;;;;;18.78;60.86;99201.81;4450243;32;33922;-91
2022/10/25 04:37:59;;;;;;;;;;;;;;;19.62;58.09;99202.63;4433363;32;33554;-93
2022/10/25 04:40:27;;;;;;;;;;;;;;;19.39;58.79;99211.03;4426572;32;34356;-93
2022/10/25 04:42:54;;;;;;;;;;;;;;;18.35;62.18;99210.47;4454481;32;33682;-94
2022/10/25 04:45:21;;;;;;;;;;;;;;;19.31;59.02;99216.44;4430320;32;33666;-91
2022/10/25 04:47:48;;;;;;;;;;;;;;;19.18;59.54;99225.50;4429453;32;34238;-93
2022/10/25 04:50:16;;;;;;;;;;;;;;;18.80;60.49;99215.78;4443571;32;32096;-93
2022/10/25 04:52:43;;;;;;;;;;;;;;;19.48;58.55;99221.34;4444796;32;34322;-92
2022/10/25 04:55:11;;;;;;;;;;;;;;;19.71;57.93;99234.00;4420707;32;34699;-90
2022/10/25 04:57:38;;;;;;;;;;;;;;;19.90;56.97;99223.91;4427947;32;34051;-94
2022/10/25 05:00:06;;;;;;;;;;;;;;;19.06;59.32;99224.00;4425616;32;32091;-92
2022/10/25 05:02:33;;;;;;;;;;;;;;;19.63;57.85;99230.69;4457699;32;33763;-94
2022/10/25 05:05:01;;;;;;;;;;;;;;;19.57;57.99;99230.78;4470069;32;34031;-95
2022/10/25 05:07:28;;;;;;;;;;;;;;;19.27;58.82;99232.31;4446701;32;33850;-92
2022/10/25 05:09:55;;;;;;;;;;;;;;;19.14;59.17;99227.34;4452043;32;34580;-94
2022/10/25 05:12:23;;;;;;;;;;;;;;;19.68;57.20;99228.81;4451549;32;34565;-94
2022/10/25 05:14:50;;;;;;;;;;;;;;;19.26;58.91;99226.22;4440071;32;33301;-94
2022/10/25 05:17:17;;;;;;;;;;;;;;;20.27;55.82;99213.34;4467830;32;34195;-95
2022/10/25 05:19:45;;;;;;;;;;;;;;;19.52;57.57;99225.63;4454301;32;32946;-94
2022/10/25 05:22:12;;;;;;;;;;;;;;;19.81;56.94;99218.84;4468987;32;34134;-93
2022/10/25 05:24:39;;;;;;;;;;;;;;;19.46;57.86;99228.41;4452571;32;33950;-94
2022/10/25 05:27:06;;;;;;;;;;;;;;;19.87;56.51;99239.75;4441575;32;32709;-94
2022/10/25 05:29:34;;;;;;;;;;;;;;;20.24;55.32;99239.72;4441645;32;32211;-94
2022/10/25 05:32:02;;;;;;;;;;;;;;;20.26;55.18;99253.69;4441725;32;33869;-93
2022/10/25 05:34:29;;;;;;;;;;;;;;;19.88;56.21;99268.66;4452562;32;33797;-93
2022/10/25 05:36:56;;;;;;;;;;;;;;;20.24;55.20;99281.84;4428414;32;33520;-92
2022/10/25 05:39:23;;;;;;;;;;;;;;;20.09;55.61;99279.59;4428391;32;32643;-95
2022/10/25 05:41:51;;;;;;;;;;;;;;;20.18;55.28;99282.00;4453250;32;34863;-93
2022/10/25 05:44:18;;;;;;;;;;;;;;;19.89;55.96;99296.72;4440157;32;34163;-91
2022/10/25 05:46:45;;;;;;;;;;;;;;;19.95;55.64;99302.72;4427709;32;33053;-93
2022/10/25 05:49:12;;;;;;;;;;;;;;;20.08;55.32;99306.81;4451845;32;33381;-93
2022/10/25 05:51:40;;;;;;;;;;;;;;;20.34;54.56;99317.59;4440509;32;34327;-94
2022/10/25 05:54:09;;;;;;;;;;;;;;;20.14;55.06;99319.81;4453437;32;34261;-92
2022/10/25 05:56:36;;;;;;;;;;;;;;;20.25;54.86;99325.69;4438963;32;34349;-94
2022/10/25 05:59:08;;;;;;;;;;;;;;;18.42;60.76;99320.59;4453850;32;33265;-93
2022/10/25 06:01:36;;;;;;;;;;;;;;;19.25;58.19;99313.84;4441453;32;34135;-93
2022/10/25 06:04:04;;;;;;;;;;;;;;;19.16;58.39;99312.25;4438095;32;35187;-92
2022/10/25 06:06:31;;;;;;;;;;;;;;;19.71;56.71;99317.31;4429024;32;33230;-95
2022/10/25 06:08:59;;;;;;;;;;;;;;;19.58;57.11;99311.41;4439878;32;33360;-94
2022/10/25 06:11:26;;;;;;;;;;;;;;;19.78;56.59;99324.19;4457052;32;33774;-92
2022/10/25 06:13:54;;;;;;;;;;;;;;;20.31;54.76;99336.09;4460537;32;33622;-96
2022/10/25 06:16:21;;;;;;;;;;;;;;;20.21;55.03;99336.34;4454082;32;33672;-94
2022/10/25 06:18:48;;;;;;;;;;;;;;;20.00;55.47;99342.97;4468289;32;33919;-91
2022/10/25 06:21:17;;;;;;;;;;;;;;;19.31;57.68;99344.41;4432813;32;32745;-95
2022/10/25 06:23:44;;;;;;;;;;;;;;;19.85;55.94;99352.94;4450074;32;33791;-93
2022/10/25 06:26:13;;;;;;;;;;;;;;;19.91;55.75;99362.47;4419413;32;32980;-93
2022/10/25 06:28:40;;;;;;;;;;;;;;;19.77;56.13;99362.75;4452319;32;32496;-95
2022/10/25 06:31:08;;;;;;;;;;;;;;;19.84;56.06;99364.34;4425878;32;33220;-94
2022/10/25 06:33:36;;;;;;;;;;;;;;;19.89;55.98;99373.03;4466252;32;34034;-95
2022/10/25 06:36:03;;;;;;;;;;;;;;;20.29;54.72;99376.50;4454012;32;34676;-96
2022/10/25 06:38:31;;;;;;;;;;;;;;;20.55;54.20;99376.78;4429060;32;32149;-95
2022/10/25 06:41:05;;;;;;;;;;;;;;;20.27;54.67;99365.16;4440639;32;33558;-94
2022/10/25 06:43:35;;;;;;;;;;;;;;;20.32;54.54;99366.78;4454010;32;34585;-93
2022/10/25 06:46:06;;;;;;;;;;;;;;;19.92;55.30;99359.78;4428257;32;32992;-96
2022/10/25 06:48:34;;;;;;;;;;;;;;;20.48;53.88;99358.50;4440808;32;33389;-91
2022/10/25 06:51:02;;;;;;;;;;;;;;;20.50;53.44;99365.50;4453191;32;34114;-93
2022/10/25 06:53:30;;;;;;;;;;;;;;;20.49;53.29;99370.75;4452530;32;34315;-93
2022/10/25 06:56:05;;;;;;;;;;;;;;;20.36;53.59;99360.53;4430323;32;32312;-94
2022/10/25 06:58:35;;;;;;;;;;;;;;;20.50;53.08;99360.25;4413045;32;32025;-93
2022/10/25 07:01:03;;;;;;;;;;;;;;;20.80;52.10;99357.75;4420583;32;34356;-94
2022/10/25 07:03:34;;;;;;;;;;;;;;;20.06;54.30;99353.34;4413566;32;34344;-92
2022/10/25 07:06:06;;;;;;;;;;;;;;;20.31;53.78;99356.28;4463610;32;32995;-93
2022/10/25 07:08:33;;;;;;;;;;;;;;;20.51;53.34;99350.56;4450583;32;33470;-93
2022/10/25 07:11:00;;;;;;;;;;;;;;;20.62;53.08;99356.44;4424698;32;32585;-91
2022/10/25 07:13:29;;;;;;;;;;;;;;;21.01;52.26;99359.81;4452145;32;34281;-92
2022/10/25 07:16:03;;;;;;;;;;;;;;;20.81;52.42;99362.97;4440108;32;34102;-90
2022/10/25 07:18:31;;;;;;;;;;;;;;;21.04;51.74;99364.12;4452930;32;33234;-90
2022/10/25 07:21:02;;;;;;;;;;;;;;;20.94;51.87;99357.38;4452945;32;34053;-91
2022/10/25 07:23:29;;;;;;;;;;;;;;;20.97;51.86;99362.56;4452804;32;34405;-90
2022/10/25 07:25:57;;;;;;;;;;;;;;;20.55;52.89;99365.38;4461216;32;34268;-90
2022/10/25 07:28:24;;;;;;;;;;;;;;;19.97;54.53;99370.22;4451427;32;34145;-90
2022/10/25 07:30:51;;;;;;;;;;;;;;;20.50;53.09;99375.19;4437236;32;34322;-91
2022/10/25 07:33:19;;;;;;;;;;;;;;;20.50;53.10;99377.81;4437250;32;34272;-90
2022/10/25 07:35:46;;;;;;;;;;;;;;;20.07;54.17;99378.75;4437187;32;34812;-92
2022/10/25 07:38:32;;;;;;;;;;;;;;;20.05;54.63;99381.44;4452400;32;33757;-95
2022/10/25 07:40:59;;;;;;;;;;;;;;;19.54;56.05;99386.88;4461986;32;33953;-94
2022/10/25 07:43:27;;;;;;;;;;;;;;;20.21;54.30;99387.22;4445734;32;34267;-92
2022/10/25 07:45:54;;;;;;;;;;;;;;;19.41;56.72;99393.28;4451502;32;33957;-90
2022/10/25 07:48:22;;;;;;;;;;;;;;;19.78;55.56;99382.91;4466955;32;33498;-92
2022/10/25 07:50:49;;;;;;;;;;;;;;;19.96;55.16;99386.03;4452729;32;33989;-91
2022/10/25 07:53:16;;;;;;;;;;;;;;;20.60;53.38;99397.75;4466760;32;35175;-91
2022/10/25 07:55:50;;;;;;;;;;;;;;;21.11;52.09;99392.06;4453549;32;34083;-92
2022/10/25 07:58:18;;;;;;;;;;;;;;;20.71;53.29;99408.88;4452817;32;31798;-89
2022/10/25 08:00:45;;;;;;;;;;;;;;;20.85;52.99;99395.38;4452678;32;34275;-91
2022/10/25 08:03:13;;;;;;;;;;;;;;;20.45;54.16;99406.84;4453276;32;34113;-91
2022/10/25 08:05:42;;;;;;;;;;;;;;;20.47;54.08;99417.34;4439046;32;34873;-91
2022/10/25 08:08:09;;;;;;;;;;;;;;;21.64;50.84;99395.03;4452823;32;33447;-91
2022/10/25 08:10:36;;;;;;;;;;;;;;;21.44;51.70;99397.34;4433884;32;34308;-91
2022/10/25 08:13:04;;;;;;;;;;;;;;;21.80;50.13;99393.66;4468821;32;34444;-91
2022/10/25 08:15:31;;;;;;;;;;;;;;;20.85;53.16;99395.38;4468348;32;34063;-91
2022/10/25 08:17:59;;;;;;;;;;;;;;;21.23;52.16;99389.09;4468855;32;33301;-89
2022/10/25 08:20:26;;;;;;;;;;;;;;;21.06;53.04;99396.56;4468650;32;33998;-89
2022/10/25 08:23:13;;;;;;;;;;;;;;;21.01;52.84;99401.13;4468489;32;35335;-90
2022/10/25 08:25:40;;;;;;;;;;;;;;;20.12;55.47;99401.47;4468582;32;35215;-90
2022/10/25 08:28:08;;;;;;;;;;;;;;;20.90;53.51;99394.34;4465042;32;33626;-90
2022/10/25 08:30:35;;;;;;;;;;;;;;;21.13;53.04;99396.38;4452988;32;33952;-90
2022/10/25 08:33:02;;;;;;;;;;;;;;;21.61;51.80;99398.59;4438849;32;34369;-90
2022/10/25 08:35:29;;;;;;;;;;;;;;;21.42;52.05;99391.25;4452684;32;34206;-91
2022/10/25 08:38:00;;;;;;;;;;;;;;;21.43;52.00;99387.72;4452753;32;33208;-91
2022/10/25 08:40:46;;;;;;;;;;;;;;;21.28;52.41;99397.75;4453118;32;34308;-91
2022/10/25 08:43:26;;;;;;;;;;;;;;;20.98;53.35;99402.03;4452548;32;34490;-91
2022/10/25 08:45:55;;;;;;;;;;;;;;;21.19;52.78;99395.38;4452701;32;34210;-91
2022/10/25 08:48:25;;;;;;;;;;;;;;;21.63;51.73;99398.59;4449601;32;33131;-90
2022/10/25 08:50:52;;;;;;;;;;;;;;;21.00;52.65;99402.88;4454136;32;34088;-91
2022/10/25 08:53:21;;;;;;;;;;;;;;;21.73;51.12;99409.72;4454108;32;35145;-90
2022/10/25 08:55:48;;;;;;;;;;;;;;;21.79;51.22;99412.19;4454052;32;34956;-91
2022/10/25 08:58:37;;;;;;;;;;;;;;;21.57;51.80;99402.25;4468139;32;34184;-91
2022/10/25 09:01:06;;;;;;;;;;;;;;;21.64;51.65;99413.50;4454409;32;34676;-91
2022/10/25 09:03:33;;;;;;;;;;;;;;;21.90;51.04;99419.81;4468283;32;34519;-91
2022/10/25 09:06:06;;;;;;;;;;;;;;;22.45;49.18;99420.78;4454048;32;34923;-91
2022/10/25 09:08:34;;;;;;;;;;;;;;;22.07;50.27;99423.66;4457941;32;33294;-91
2022/10/25 09:11:04;;;;;;;;;;;;;;;21.80;51.18;99429.75;4452751;32;34289;-91
2022/10/25 09:13:31;;;;;;;;;;;;;;;21.61;51.36;99424.13;4438249;32;34221;-91
2022/10/25 09:16:00;;;;;;;;;;;;;;;21.03;53.33;99425.69;4460016;32;35326;-91
2022/10/25 09:18:47;;;;;;;;;;;;;;;20.85;53.64;99425.22;4454379;32;33855;-91
2022/10/25 09:21:20;;;;;;;;;;;;;;;21.00;53.41;99421.34;4468120;32;34319;-91
2022/10/25 09:23:56;;;;;;;;;;;;;;;21.18;52.69;99425.28;4454224;32;34035;-91
2022/10/25 09:26:44;;;;;;;;;;;;;;;21.58;51.74;99424.22;4454187;32;33691;-90
2022/10/25 09:29:17;;;;;;;;;;;;;;;21.43;51.83;99414.94;4467823;32;34276;-91
2022/10/25 09:31:47;;;;;;;;;;;;;;;21.22;51.89;99420.78;4467904;32;35105;-91
2022/10/25 09:34:14;;;;;;;;;;;;;;;21.57;50.92;99411.94;4453914;32;34340;-91
2022/10/25 09:36:48;;;;;;;;;;;;;;;20.80;53.25;99424.47;4438409;32;34131;-91
2022/10/25 09:39:18;;;;;;;;;;;;;;;20.59;54.02;99427.63;4452153;32;33334;-91
2022/10/25 09:41:46;;;;;;;;;;;;;;;20.39;54.85;99434.19;4438016;32;34355;-91
2022/10/25 09:44:13;;;;;;;;;;;;;;;20.37;54.78;99430.72;4438260;32;34515;-92
2022/10/25 09:46:42;;;;;;;;;;;;;;;20.48;54.82;99437.50;4466120;32;33376;-91
2022/10/25 09:49:16;;;;;;;;;;;;;;;20.85;53.02;99433.12;4454073;32;33894;-90
2022/10/25 09:51:49;;;;;;;;;;;;;;;21.11;52.65;99431.63;4453926;32;34119;-91
2022/10/25 09:54:18;;;;;;;;;;;;;;;21.64;51.12;99429.34;4453957;32;34261;-92
2022/10/25 09:56:45;;;;;;;;;;;;;;;20.97;52.93;99442.50;4453519;32;33964;-91
2022/10/25 09:59:12;;;;;;;;;;;;;;;20.36;54.39;99452.69;4450150;32;33195;-91
2022/10/25 10:01:39;;;;;;;;;;;;;;;20.58;54.26;99444.34;4438349;32;34898;-91
2022/10/25 10:04:27;;;;;;;;;;;;;;;21.56;51.63;99448.00;4438180;32;34449;-91
2022/10/25 10:07:00;;;;;;;;;;;;;;;21.21;52.05;99448.91;4438372;32;33970;-91
2022/10/25 10:09:28;;;;;;;;;;;;;;;21.19;52.30;99448.09;4438684;32;33227;-91
2022/10/25 10:11:55;;;;;;;;;;;;;;;20.99;52.73;99451.25;4438380;32;33642;-91
2022/10/25 10:14:43;;;;;;;;;;;;;;;21.36;52.17;99451.16;4425595;32;33780;-91
2022/10/25 10:17:11;;;;;;;;;;;;;;;21.68;51.03;99449.44;4452591;32;34339;-91
2022/10/25 10:19:40;;;;;;;;;;;;;;;21.29;52.05;99448.69;4448251;32;33296;-90
2022/10/25 10:22:07;;;;;;;;;;;;;;;21.44;50.92;99447.47;4467723;32;33705;-91
2022/10/25 10:24:36;;;;;;;;;;;;;;;21.19;51.79;99445.47;4453338;32;33967;-91
2022/10/25 10:27:07;;;;;;;;;;;;;;;21.81;50.23;99437.63;4453482;32;34829;-90
2022/10/25 10:29:35;;;;;;;;;;;;;;;21.68;50.26;99428.34;4453596;32;34524;-91
2022/10/25 10:32:06;;;;;;;;;;;;;;;21.94;49.73;99437.28;4467592;32;34049;-91
2022/10/25 10:34:43;;;;;;;;;;;;;;;22.20;49.01;99433.88;4453305;32;34384;-91
2022/10/25 10:37:15;;;;;;;;;;;;;;;21.43;51.67;99448.38;4453489;32;34010;-91
2022/10/25 10:39:54;;;;;;;;;;;;;;;21.06;52.54;99433.47;4428626;32;33447;-91
2022/10/25 10:42:28;;;;;;;;;;;;;;;21.49;51.42;99435.03;4452332;32;34159;-91
2022/10/25 10:45:03;;;;;;;;;;;;;;;22.31;48.95;99437.06;4452094;32;33718;-91
2022/10/25 10:47:31;;;;;;;;;;;;;;;21.21;52.09;99437.50;4451924;32;33927;-91
2022/10/25 10:49:58;;;;;;;;;;;;;;;21.61;50.75;99435.53;4452026;32;33115;-92
2022/10/25 10:52:27;;;;;;;;;;;;;;;22.06;49.84;99436.91;4451709;32;33901;-89
2022/10/25 10:54:54;;;;;;;;;;;;;;;22.33;48.95;99436.09;4451649;32;34322;-90
2022/10/25 10:57:29;;;;;;;;;;;;;;;21.70;50.54;99444.13;4437940;32;34456;-90
2022/10/25 10:59:56;;;;;;;;;;;;;;;21.90;50.13;99449.72;4437699;32;33017;-90
2022/10/25 11:02:33;;;;;;;;;;;;;;;22.06;50.21;99440.41;4437703;32;33846;-89
2022/10/25 11:05:01;;;;;;;;;;;;;;;22.30;49.17;99446.75;4451513;32;34222;-91
2022/10/25 11:07:33;;;;;;;;;;;;;;;22.86;48.02;99439.72;4461997;32;34267;-91
2022/10/25 11:10:19;;;;;;;;;;;;;;;22.53;48.15;99439.91;4453413;32;33722;-90
2022/10/25 11:13:03;;;;;;;;;;;;;;;21.89;49.68;99439.16;4467342;32;33877;-91
2022/10/25 11:15:32;;;;;;;;;;;;;;;21.92;49.27;99439.94;4466996;32;34324;-91
2022/10/25 11:18:02;;;;;;;;;;;;;;;21.52;50.35;99446.38;4450006;32;34277;-91
2022/10/25 11:20:30;;;;;;;;;;;;;;;21.57;50.81;99439.19;4438011;32;33813;-92
2022/10/25 11:23:00;;;;;;;;;;;;;;;21.22;51.10;99440.12;4437329;32;34702;-90
2022/10/25 11:25:38;;;;;;;;;;;;;;;22.13;48.63;99440.25;4437850;32;34142;-90
2022/10/25 11:28:36;;;;;;;;;;;;;;;22.25;47.94;99443.41;4437299;32;34062;-90
2022/10/25 11:31:06;;;;;;;;;;;;;;;21.57;48.81;99444.47;4438195;32;33409;-91
2022/10/25 11:33:40;;;;;;;;;;;;;;;22.10;48.15;99444.69;4453142;32;33681;-91
2022/10/25 11:36:25;;;;;;;;;;;;;;;21.78;48.83;99437.72;4461932;32;35032;-91
2022/10/25 11:39:12;;;;;;;;;;;;;;;21.59;49.93;99452.31;4454422;32;34970;-91
2022/10/25 11:41:46;;;;;;;;;;;;;;;21.89;48.94;99440.03;4466047;32;33503;-89
2022/10/25 11:44:17;;;;;;;;;;;;;;;20.96;51.62;99439.91;4454824;32;34894;-91
2022/10/25 11:46:44;;;;;;;;;;;;;;;22.16;48.11;99425.22;4468709;32;33886;-90
2022/10/25 11:49:29;;;;;;;;;;;;;;;22.32;47.85;99426.47;4467154;32;34807;-91
2022/10/25 11:52:06;;;;;;;;;;;;;;;21.36;49.10;99424.78;4468038;32;33504;-89
2022/10/25 11:54:51;;;;;;;;;;;;;;;22.61;45.76;99424.66;4460829;32;34087;-90
2022/10/25 11:57:21;;;;;;;;;;;;;;;22.50;45.51;99422.37;4468631;32;35041;-91
2022/10/25 11:59:48;;;;;;;;;;;;;;;22.07;46.86;99425.44;4468337;32;34197;-90
2022/10/25 12:02:34;;;;;;;;;;;;;;;22.45;46.44;99423.44;4458684;32;33598;-90
2022/10/25 12:05:07;;;;;;;;;;;;;;;22.67;45.81;99424.47;4452794;32;34949;-90
2022/10/25 12:07:37;;;;;;;;;;;;;;;22.65;44.96;99421.00;4452844;32;34459;-91
2022/10/25 12:10:15;;;;;;;;;;;;;;;22.90;44.33;99425.50;4438905;32;32648;-90
2022/10/25 12:12:51;;;;;;;;;;;;;;;22.23;45.16;99418.81;4439106;32;34233;-91
2022/10/25 12:15:20;;;;;;;;;;;;;;;22.50;45.52;99422.37;4438956;32;34205;-90
2022/10/25 12:17:47;;;;;;;;;;;;;;;22.42;44.76;99419.09;4441676;32;34030;-90
2022/10/25 12:20:20;;;;;;;;;;;;;;;22.15;44.66;99431.38;4444386;32;33946;-91
2022/10/25 12:22:48;;;;;;;;;;;;;;;22.38;43.55;99435.09;4454574;32;33012;-91
2022/10/25 12:25:18;;;;;;;;;;;;;;;21.82;45.46;99439.38;4455000;32;34261;-91
2022/10/25 12:27:46;;;;;;;;;;;;;;;22.37;44.41;99436.00;4468582;32;35261;-91
2022/10/25 12:30:14;;;;;;;;;;;;;;;22.51;44.35;99429.37;4454390;32;34270;-90
2022/10/25 12:32:42;;;;;;;;;;;;;;;21.45;45.33;99438.66;4454442;32;34105;-91
2022/10/25 12:35:18;;;;;;;;;;;;;;;22.95;42.56;99439.44;4468085;32;33802;-90
2022/10/25 12:37:48;;;;;;;;;;;;;;;22.73;42.41;99433.97;4468396;32;35303;-90
2022/10/25 12:40:20;;;;;;;;;;;;;;;23.04;42.98;99432.09;4468143;32;34038;-90
2022/10/25 12:42:51;;;;;;;;;;;;;;;23.04;42.79;99439.16;4453648;32;33071;-87
2022/10/25 12:45:27;;;;;;;;;;;;;;;22.88;42.77;99437.87;4464855;32;34355;-90
2022/10/25 12:47:56;;;;;;;;;;;;;;;23.37;42.52;99436.25;4468406;32;34171;-90
2022/10/25 12:50:42;;;;;;;;;;;;;;;22.97;43.13;99433.19;4453909;32;33630;-90
2022/10/25 12:53:25;;;;;;;;;;;;;;;22.98;43.55;99436.72;4462260;32;34233;-90
2022/10/25 12:55:55;;;;;;;;;;;;;;;23.21;43.21;99431.50;4452742;32;34065;-90
2022/10/25 12:58:25;;;;;;;;;;;;;;;23.27;43.42;99431.28;4452710;32;34520;-90
2022/10/25 13:01:02;;;;;;;;;;;;;;;23.10;44.03;99431.00;4438634;32;34060;-90
2022/10/25 13:03:33;;;;;;;;;;;;;;;21.91;46.53;99435.59;4438712;32;33595;-91